createdAt,value
2023-04-29T00:01:28.891Z,2.5
2023-04-29T00:04:30.926Z,2.1
2023-04-29T00:07:32.825Z,2.1
2023-04-29T00:10:35.221Z,2.1
2023-04-29T00:13:37.187Z,2
2023-04-29T00:16:39.183Z,2
2023-04-29T00:19:41.132Z,2
2023-04-29T00:22:43.059Z,1.9
2023-04-29T00:25:45.002Z,1.7
2023-04-29T00:28:47.007Z,2
2023-04-29T00:31:48.937Z,2.8
2023-04-29T00:34:50.892Z,2.5
2023-04-29T00:37:52.858Z,2.4
2023-04-29T00:40:54.892Z,2.3
2023-04-29T00:43:56.840Z,2.3
2023-04-29T00:46:58.806Z,2.2
2023-04-29T00:50:00.751Z,2.2
2023-04-29T00:53:02.908Z,1.9
2023-04-29T00:56:04.866Z,2.3
2023-04-29T00:59:06.847Z,2
2023-04-29T01:02:08.766Z,2.8
2023-04-29T01:05:10.750Z,2.4
2023-04-29T01:08:12.694Z,2.5
2023-04-29T01:11:14.708Z,2.3
2023-04-29T01:14:16.666Z,2.1
2023-04-29T01:17:18.665Z,2.3
2023-04-29T01:20:20.563Z,2.7
2023-04-29T01:23:22.534Z,2.2
2023-04-29T01:26:24.511Z,2.3
2023-04-29T01:29:26.471Z,2.2
2023-04-29T01:32:28.450Z,2.4
2023-04-29T01:35:30.409Z,2.3
2023-04-29T01:38:32.366Z,2.3
2023-04-29T01:41:34.330Z,2.6
2023-04-29T01:44:36.575Z,1.9
2023-04-29T01:47:38.275Z,1.7
2023-04-29T01:50:40.365Z,1.7
2023-04-29T01:53:42.295Z,1.6
2023-04-29T01:56:44.262Z,2
2023-04-29T01:59:46.224Z,1.5
2023-04-29T02:02:48.234Z,1.1
2023-04-29T02:05:50.152Z,1.4
2023-04-29T02:08:52.096Z,1.3
2023-04-29T02:11:54.054Z,1.4
2023-04-29T02:14:56.040Z,1.6
2023-04-29T02:17:58.026Z,1.6
2023-04-29T02:20:59.983Z,1.8
2023-04-29T02:24:01.945Z,1.8
2023-04-29T02:27:03.916Z,1.4
2023-04-29T02:30:05.903Z,1.7
2023-04-29T02:33:08.730Z,1.7
2023-04-29T02:36:09.817Z,1.7
2023-04-29T02:39:11.813Z,1.4
2023-04-29T02:42:13.789Z,1.7
2023-04-29T02:45:15.757Z,2
2023-04-29T02:48:17.703Z,2.1
2023-04-29T02:51:19.683Z,2.5
2023-04-29T02:54:21.650Z,2.1
2023-04-29T02:57:23.677Z,2.3
2023-04-29T03:00:25.653Z,3.9
2023-04-29T03:03:27.737Z,4.1
2023-04-29T03:06:29.572Z,3.3
2023-04-29T03:09:31.538Z,3.3
2023-04-29T03:12:33.537Z,4.5
2023-04-29T03:15:35.468Z,3.7
2023-04-29T03:18:37.414Z,5.6
2023-04-29T03:21:39.382Z,5.4
2023-04-29T03:24:41.362Z,4.8
2023-04-29T03:27:43.336Z,6.7
2023-04-29T03:30:45.309Z,6.8
2023-04-29T03:33:47.277Z,5.2
2023-04-29T03:36:49.220Z,5.8
2023-04-29T03:39:51.355Z,5.1
2023-04-29T03:42:53.167Z,4.9
2023-04-29T03:45:55.167Z,4.9
2023-04-29T03:48:57.082Z,5.3
2023-04-29T03:51:59.060Z,6.2
2023-04-29T03:55:01.073Z,4.7
2023-04-29T03:58:02.996Z,5.9
2023-04-29T04:01:04.966Z,5.4
2023-04-29T04:04:07.008Z,6.1
2023-04-29T04:07:08.905Z,5.3
2023-04-29T04:10:10.855Z,7.8
2023-04-29T04:13:12.818Z,7
2023-04-29T04:16:14.890Z,8
2023-04-29T04:19:16.800Z,6.5
2023-04-29T04:22:18.745Z,6
2023-04-29T04:25:20.773Z,6.8
2023-04-29T04:28:22.691Z,6.1
2023-04-29T04:31:24.669Z,6.7
2023-04-29T04:34:26.622Z,8.2
2023-04-29T04:37:28.574Z,7.9
2023-04-29T04:40:30.534Z,7.7
2023-04-29T04:43:32.520Z,9.1
2023-04-29T04:46:34.480Z,8.5
2023-04-29T04:49:36.435Z,8
2023-04-29T04:52:38.416Z,8.8
2023-04-29T04:55:40.360Z,7.4
2023-04-29T04:58:42.332Z,7.7
2023-04-29T05:01:44.370Z,7.9
2023-04-29T05:04:46.331Z,5.8
2023-04-29T05:07:48.340Z,6.4
2023-04-29T05:10:50.281Z,7.3
2023-04-29T05:13:52.260Z,8.5
2023-04-29T05:16:54.241Z,7.8
2023-04-29T05:19:56.209Z,8.2
2023-04-29T05:22:58.174Z,8.2
2023-04-29T05:26:00.233Z,8
2023-04-29T05:29:02.173Z,8.2
2023-04-29T05:32:04.116Z,7.9
2023-04-29T05:35:07.385Z,6.9
2023-04-29T05:38:08.312Z,6.7
2023-04-29T05:41:09.993Z,5.6
2023-04-29T05:44:11.954Z,5.6
2023-04-29T05:47:13.900Z,5.9
2023-04-29T05:50:15.920Z,5.8
2023-04-29T05:53:17.891Z,4.8
2023-04-29T05:56:19.846Z,4.4
2023-04-29T05:59:21.825Z,4.8
2023-04-29T06:02:23.933Z,4.1
2023-04-29T06:05:25.929Z,4.3
2023-04-29T06:08:27.702Z,4.7
2023-04-29T06:11:29.637Z,4.9
2023-04-29T06:14:31.614Z,4.7
2023-04-29T06:17:33.584Z,5
2023-04-29T06:20:37.420Z,5.2
2023-04-29T06:23:37.597Z,4.8
2023-04-29T06:26:39.521Z,5.3
2023-04-29T06:29:41.500Z,5.1
2023-04-29T06:32:43.566Z,5.4
2023-04-29T06:35:45.423Z,4.4
2023-04-29T06:38:47.396Z,4.2
2023-04-29T06:41:49.369Z,4.8
2023-04-29T06:44:51.326Z,4.4
2023-04-29T06:47:53.330Z,4.1
2023-04-29T06:50:55.280Z,4.8
2023-04-29T06:53:57.223Z,4.7
2023-04-29T06:56:59.192Z,4.4
2023-04-29T07:00:01.177Z,4.7
2023-04-29T07:03:03.188Z,4.7
2023-04-29T07:06:05.093Z,5.5
2023-04-29T07:09:07.052Z,6.5
2023-04-29T07:12:09.073Z,5.6
2023-04-29T07:15:11.058Z,5
2023-04-29T07:18:13.007Z,6.6
2023-04-29T07:21:14.980Z,6
2023-04-29T07:24:16.926Z,5.2
2023-04-29T07:27:18.909Z,6.7
2023-04-29T07:30:20.877Z,5.7
2023-04-29T07:33:22.885Z,5.7
2023-04-29T07:36:24.839Z,5.8
2023-04-29T07:39:26.787Z,5.1
2023-04-29T07:42:28.754Z,5.7
2023-04-29T07:45:30.735Z,4.8
2023-04-29T07:48:32.741Z,5.2
2023-04-29T07:51:34.630Z,4.8
2023-04-29T07:54:36.587Z,5.3
2023-04-29T07:57:38.554Z,5.4
2023-04-29T08:00:40.513Z,4.9
2023-04-29T08:03:42.649Z,4.6
2023-04-29T08:06:44.467Z,5.1
2023-04-29T08:09:46.400Z,4.3
2023-04-29T08:12:48.393Z,4.3
2023-04-29T08:15:50.388Z,4.8
2023-04-29T08:18:52.487Z,4.3
2023-04-29T08:21:54.286Z,4.4
2023-04-29T08:24:56.233Z,3.8
2023-04-29T08:27:58.199Z,4.2
2023-04-29T08:31:00.152Z,3.5
2023-04-29T08:34:02.101Z,4.2
2023-04-29T08:37:04.107Z,4.1
2023-04-29T08:40:06.320Z,4.2
2023-04-29T08:43:08.311Z,3.5
2023-04-29T08:46:10.285Z,3.7
2023-04-29T08:49:12.304Z,4.3
2023-04-29T08:52:14.166Z,4.4
2023-04-29T08:55:16.144Z,4.1
2023-04-29T08:58:18.085Z,3.8
2023-04-29T09:01:20.097Z,3.5
2023-04-29T09:04:22.119Z,3.8
2023-04-29T09:07:24.093Z,3.7
2023-04-29T09:10:26.215Z,3.5
2023-04-29T09:13:28.210Z,3.3
2023-04-29T09:16:30.317Z,3.4
2023-04-29T09:19:43.939Z,4.4
2023-04-29T09:22:33.342Z,3.7
2023-04-29T09:25:35.353Z,3.6
2023-04-29T09:28:37.671Z,3.9
2023-04-29T09:31:39.849Z,3.3
2023-04-29T09:34:41.835Z,3.6
2023-04-29T09:37:43.855Z,3.3
2023-04-29T09:40:57.226Z,3.1
2023-04-29T09:43:47.779Z,3.6
2023-04-29T09:46:49.725Z,3.5
2023-04-29T09:49:51.713Z,2.9
2023-04-29T09:52:59.500Z,3.6
2023-04-29T09:56:01.673Z,3.8
2023-04-29T09:59:06.069Z,3.5
2023-04-29T10:02:06.021Z,3.2
2023-04-29T10:05:08.148Z,3.7
2023-04-29T10:08:16.006Z,3.4
2023-04-29T10:11:18.002Z,3.1
2023-04-29T10:14:19.978Z,2.9
2023-04-29T10:17:21.943Z,2.7
2023-04-29T10:20:24.343Z,2.7
2023-04-29T10:23:26.820Z,2.5
2023-04-29T10:26:28.799Z,2.4
2023-04-29T10:29:30.805Z,2
2023-04-29T10:32:40.055Z,2.1
2023-04-29T10:35:34.707Z,1.9
2023-04-29T10:38:36.681Z,1.7
2023-04-29T10:41:38.633Z,1.4
2023-04-29T10:44:40.607Z,1.7
2023-04-29T10:47:45.382Z,2.3
2023-04-29T10:50:47.381Z,1.9
2023-04-29T10:54:08.520Z,2
2023-04-29T10:56:50.534Z,2.2
2023-04-29T10:59:52.506Z,2.5
2023-04-29T11:02:54.507Z,2.7
2023-04-29T11:05:56.453Z,2.2
2023-04-29T11:08:58.439Z,2.4
2023-04-29T11:12:03.756Z,2.8
2023-04-29T11:15:05.557Z,2.1
2023-04-29T11:18:07.523Z,2.2
2023-04-29T11:21:09.465Z,2.2
2023-04-29T11:24:11.476Z,2
2023-04-29T11:27:13.432Z,2
2023-04-29T11:30:15.389Z,2
2023-04-29T11:33:19.678Z,2.4
2023-04-29T11:36:19.355Z,2.2
2023-04-29T11:39:21.344Z,2
2023-04-29T11:42:23.262Z,2.1
2023-04-29T11:45:25.226Z,2.1
2023-04-29T11:48:28.094Z,1.9
2023-04-29T11:51:30.069Z,1.8
2023-04-29T11:54:32.117Z,2.1
2023-04-29T11:57:34.092Z,2.4
2023-04-29T12:00:36.086Z,2.3
2023-04-29T12:03:38.256Z,2.3
2023-04-29T12:06:40.017Z,2.3
2023-04-29T12:09:41.992Z,2.3
2023-04-29T12:12:44.168Z,2.1
2023-04-29T12:15:45.955Z,1.7
2023-04-29T12:18:47.926Z,2
2023-04-29T12:21:49.956Z,2
2023-04-29T12:24:54.865Z,1.9
2023-04-29T12:27:56.608Z,2.1
2023-04-29T12:30:58.593Z,1.6
2023-04-29T12:34:00.541Z,1.9
2023-04-29T12:37:02.502Z,1.8
2023-04-29T12:40:04.464Z,1.9
2023-04-29T12:43:06.423Z,1.7
2023-04-29T12:46:08.425Z,1.7
2023-04-29T12:49:10.386Z,1.7
2023-04-29T12:52:12.345Z,1.8
2023-04-29T12:55:17.120Z,1.7
2023-04-29T12:58:19.051Z,1.6
2023-04-29T13:01:21.058Z,1.7
2023-04-29T13:04:23.033Z,1.5
2023-04-29T13:07:24.952Z,1.8
2023-04-29T13:10:26.917Z,1.8
2023-04-29T13:13:28.867Z,1.8
2023-04-29T13:16:30.862Z,1.9
2023-04-29T13:19:48.007Z,1.6
2023-04-29T13:22:34.804Z,1.7
2023-04-29T13:25:36.757Z,1.6
2023-04-29T13:28:38.731Z,1.7
2023-04-29T13:31:40.688Z,1.7
2023-04-29T13:34:42.699Z,1.6
2023-04-29T13:37:44.644Z,1.7
2023-04-29T13:40:47.234Z,1.6
2023-04-29T13:43:50.754Z,1.5
2023-04-29T13:46:51.335Z,1.4
2023-04-29T13:53:24.601Z,1.7
2023-04-29T13:56:28.188Z,1.9
2023-04-29T14:05:02.682Z,1.9
2023-04-29T14:08:04.304Z,2.2
2023-04-29T14:11:06.243Z,2
2023-04-29T14:14:08.199Z,1.8
2023-04-29T14:17:10.182Z,2.1
2023-04-29T14:20:12.160Z,2
2023-04-29T14:23:14.105Z,1.7
2023-04-29T14:26:27.633Z,1.9
2023-04-29T14:29:18.052Z,1.8
2023-04-29T14:32:20.091Z,2.5
2023-04-29T14:35:22.012Z,2
2023-04-29T14:38:23.986Z,2.1
2023-04-29T14:41:25.943Z,2.9
2023-04-29T14:44:27.909Z,2.8
2023-04-29T14:47:29.886Z,2.5
2023-04-29T14:50:31.823Z,2.6
2023-04-29T14:53:33.772Z,2.6
2023-04-29T14:56:35.742Z,2.9
2023-04-29T14:59:37.695Z,2.9
2023-04-29T15:02:39.725Z,3.4
2023-04-29T15:05:41.629Z,3.4
2023-04-29T15:08:43.592Z,3
2023-04-29T15:11:45.568Z,2.7
2023-04-29T15:14:47.559Z,3.3
2023-04-29T15:17:49.518Z,2.6
2023-04-29T15:20:51.477Z,2
2023-04-29T15:23:53.425Z,2.1
2023-04-29T15:26:55.382Z,1.8
2023-04-29T15:29:57.359Z,1.5
2023-04-29T15:32:59.370Z,1.6
2023-04-29T15:36:01.296Z,1.4
2023-04-29T15:39:03.257Z,1.3
2023-04-29T15:42:05.201Z,1.4
2023-04-29T15:45:07.414Z,1.2
2023-04-29T15:48:09.154Z,1.3
2023-04-29T15:51:11.110Z,1.4
2023-04-29T15:54:13.060Z,1.2
2023-04-29T15:57:15.023Z,1.5
2023-04-29T16:00:17.025Z,1.4
2023-04-29T16:03:18.958Z,1.8
2023-04-29T16:06:21.114Z,2
2023-04-29T16:09:22.900Z,1.9
2023-04-29T16:12:24.882Z,2.1
2023-04-29T16:15:26.850Z,2.4
2023-04-29T16:18:28.791Z,2.9
2023-04-29T16:21:30.738Z,3.6
2023-04-29T16:24:32.691Z,3.9
2023-04-29T16:27:34.660Z,4
2023-04-29T16:30:36.635Z,4.4
2023-04-29T16:33:38.592Z,4.6
2023-04-29T16:36:40.544Z,4.4
2023-04-29T16:39:42.524Z,5.1
2023-04-29T16:42:44.476Z,5.1
2023-04-29T16:45:46.437Z,4.9
2023-04-29T16:48:48.402Z,5.1
2023-04-29T16:51:50.380Z,4.3
2023-04-29T16:54:52.373Z,4.5
2023-04-29T16:57:54.306Z,5.1
2023-04-29T17:00:56.283Z,5.1
2023-04-29T17:03:58.298Z,5.6
2023-04-29T17:07:00.173Z,4.5
2023-04-29T17:10:02.130Z,5.7
2023-04-29T17:13:04.093Z,5.3
2023-04-29T17:16:06.107Z,5.6
2023-04-29T17:19:08.018Z,5.2
2023-04-29T17:22:10.008Z,5.2
2023-04-29T17:25:11.954Z,6.2
2023-04-29T17:28:13.904Z,5.5
2023-04-29T17:31:16.017Z,4.8
2023-04-29T17:34:17.819Z,5.5
2023-04-29T17:37:19.784Z,4.8
2023-04-29T17:40:21.742Z,5.5
2023-04-29T17:43:23.697Z,5.2
2023-04-29T17:46:25.708Z,5
2023-04-29T17:49:27.634Z,5
2023-04-29T17:52:29.625Z,5.5
2023-04-29T17:55:31.568Z,5.6
2023-04-29T17:58:34.607Z,5.1
2023-04-29T18:01:36.595Z,6.1
2023-04-29T18:04:38.659Z,5.6
2023-04-29T18:07:40.520Z,6.1
2023-04-29T18:10:42.481Z,6.3
2023-04-29T18:13:44.444Z,5.8
2023-04-29T18:16:46.473Z,5.7
2023-04-29T18:19:48.405Z,6.1
2023-04-29T18:22:50.353Z,6
2023-04-29T18:25:52.297Z,6.8
2023-04-29T18:28:54.252Z,6.9
2023-04-29T18:31:56.321Z,6.5
2023-04-29T18:34:58.270Z,7.3
2023-04-29T18:38:00.210Z,6.9
2023-04-29T18:41:02.260Z,7.1
2023-04-29T18:44:04.203Z,7.8
2023-04-29T18:47:06.235Z,6.6
2023-04-29T18:50:08.220Z,6.6
2023-04-29T18:53:10.188Z,8.6
2023-04-29T18:56:12.167Z,8.2
2023-04-29T18:59:14.121Z,7.7
2023-04-29T19:02:16.099Z,7.4
2023-04-29T19:05:18.086Z,8.2
2023-04-29T19:08:20.081Z,6.4
2023-04-29T19:11:22.114Z,7
2023-04-29T19:14:24.069Z,6.4
2023-04-29T19:17:26.061Z,6.9
2023-04-29T19:20:28.039Z,7.2
2023-04-29T19:23:30.002Z,8
2023-04-29T19:26:34.703Z,7.8
2023-04-29T19:29:33.975Z,6.4
2023-04-29T19:32:35.950Z,6.8
2023-04-29T19:35:38.096Z,7.7
2023-04-29T19:38:39.870Z,6.7
2023-04-29T19:41:41.846Z,7.2
2023-04-29T19:44:43.787Z,6.9
2023-04-29T19:47:45.799Z,7.3
2023-04-29T19:50:47.734Z,7
2023-04-29T19:53:49.718Z,7
2023-04-29T19:56:51.656Z,7.3
2023-04-29T19:59:53.784Z,6.6
2023-04-29T20:02:55.696Z,7.6
2023-04-29T20:05:57.747Z,8.5
2023-04-29T20:08:59.641Z,7.9
2023-04-29T20:12:01.635Z,9.5
2023-04-29T20:15:03.605Z,8.3
2023-04-29T20:18:05.607Z,8.4
2023-04-29T20:21:07.598Z,7.8
2023-04-29T20:24:09.557Z,10
2023-04-29T20:27:11.513Z,7.2
2023-04-29T20:30:13.474Z,8.7
2023-04-29T20:33:15.564Z,6.9
2023-04-29T20:36:17.487Z,7
2023-04-29T20:39:19.445Z,9.2
2023-04-29T20:42:21.404Z,7.9
2023-04-29T20:45:23.391Z,8.8
2023-04-29T20:48:25.420Z,8.7
2023-04-29T20:51:30.414Z,8.4
2023-04-29T20:54:32.547Z,10.2
2023-04-29T20:57:34.378Z,10
2023-04-29T21:00:36.372Z,10.5
2023-04-29T21:03:38.355Z,9.5
2023-04-29T21:06:40.400Z,9.1
2023-04-29T21:09:42.294Z,8.3
2023-04-29T21:12:44.233Z,9.1
2023-04-29T21:15:46.279Z,7.9
2023-04-29T21:18:48.153Z,8.9
2023-04-29T21:21:50.126Z,9.1
2023-04-29T21:25:02.384Z,8.4
2023-04-29T21:27:54.296Z,9.1
2023-04-29T21:30:56.317Z,7.8
2023-04-29T21:33:58.279Z,8.5
2023-04-29T21:37:00.258Z,7.9
2023-04-29T21:40:02.251Z,9.2
2023-04-29T21:43:04.215Z,8.2
2023-04-29T21:46:07.500Z,8.9
2023-04-29T21:49:08.222Z,9.2
2023-04-29T21:52:10.111Z,8.4
2023-04-29T21:55:12.126Z,9.1
2023-04-29T21:58:14.105Z,8.8
2023-04-29T22:01:16.098Z,10.5
2023-04-29T22:04:17.992Z,9.7
2023-04-29T22:07:19.958Z,10
2023-04-29T22:10:21.923Z,9.8
2023-04-29T22:13:23.876Z,11.2
2023-04-29T22:16:25.926Z,10.2
2023-04-29T22:19:27.822Z,11.4
2023-04-29T22:22:29.805Z,10.3
2023-04-29T22:25:31.797Z,10.8
2023-04-29T22:28:33.790Z,10.8
2023-04-29T22:31:35.847Z,8.6
2023-04-29T22:34:37.717Z,10.2
2023-04-29T22:37:39.689Z,10.4
2023-04-29T22:40:41.720Z,10.4
2023-04-29T22:43:43.664Z,10.2
2023-04-29T22:46:45.678Z,12.6
2023-04-29T22:49:47.647Z,12.5
2023-04-29T22:52:49.623Z,11.3
2023-04-29T22:55:51.590Z,10.7
2023-04-29T22:58:53.541Z,12.3
2023-04-29T23:01:55.563Z,12.3
2023-04-29T23:04:57.608Z,12.3
2023-04-29T23:07:59.489Z,12.1
2023-04-29T23:11:01.437Z,12
2023-04-29T23:14:03.435Z,12.2
2023-04-29T23:17:05.343Z,10.9
2023-04-29T23:20:07.307Z,12.4
2023-04-29T23:23:09.332Z,12.1
2023-04-29T23:26:11.280Z,12.7
2023-04-29T23:29:13.304Z,10.9
2023-04-29T23:32:15.206Z,11.9
2023-04-29T23:35:17.240Z,12.4
2023-04-29T23:38:19.192Z,12.2
2023-04-29T23:41:21.114Z,13.5
2023-04-29T23:44:23.079Z,12.4
2023-04-29T23:47:25.039Z,11.9
2023-04-29T23:50:26.994Z,11.9
2023-04-29T23:53:29.065Z,12.3
2023-04-29T23:56:30.947Z,12.9
2023-04-29T23:59:32.906Z,11.3
